Time;durP1;ratioP1;P1;durP2;ratioP2;P2;SDS_P1;SDS_P2;PMS_P1;PMS_P2;Temp;Humidity;BMP_temperature;BMP_pressure;BME280_temperature;BME280_humidity;BME280_pressure;Samples;Min_cycle;Max_cycle;Signal;HPM_P1;HPM_P2
2023/01/04 00:02:15;;;;;;;133.18;40.45;;;;;;;13.64;51.76;94549.44;5004476;28;20038;-89
2023/01/04 00:04:40;;;;;;;107.10;39.75;;;;;;;13.65;51.54;94547.47;4988545;28;20066;-88
2023/01/04 00:07:05;;;;;;;113.63;41.53;;;;;;;13.65;51.56;94534.63;5003916;28;20038;-88
2023/01/04 00:09:31;;;;;;;116.07;40.08;;;;;;;13.65;51.21;94531.16;4971816;28;20045;-88
2023/01/04 00:11:56;;;;;;;110.63;39.45;;;;;;;13.62;51.33;94549.16;5005259;28;20041;-90
2023/01/04 00:14:22;;;;;;;99.20;39.50;;;;;;;13.63;51.16;94539.78;5003058;28;20240;-88
2023/01/04 00:16:47;;;;;;;110.75;37.10;;;;;;;13.62;51.81;94542.97;5004223;28;20045;-89
2023/01/04 00:19:12;;;;;;;101.43;39.20;;;;;;;13.61;51.35;94547.63;4976232;28;20042;-89
2023/01/04 00:21:38;;;;;;;94.03;38.08;;;;;;;13.61;51.54;94544.16;4987957;28;20449;-88
2023/01/04 00:24:03;;;;;;;96.68;38.15;;;;;;;13.64;51.40;94535.13;4987971;28;20040;-90
2023/01/04 00:26:31;;;;;;;110.70;38.95;;;;;;;13.61;51.84;94536.78;5020705;28;20048;-89
2023/01/04 00:29:00;;;;;;;110.50;37.15;;;;;;;13.63;51.21;94533.59;4970678;28;20037;-89
2023/01/04 00:31:26;;;;;;;104.30;38.13;;;;;;;13.60;51.35;94529.81;4971127;28;20504;-90
2023/01/04 00:33:57;;;;;;;100.15;37.60;;;;;;;13.63;51.35;94528.16;4987856;28;20042;-88
2023/01/04 00:36:22;;;;;;;;;;;;;;;13.67;51.29;94526.03;4988136;28;20161;-88
2023/01/04 00:39:05;;;;;;;106.90;37.55;;;;;;;13.61;51.55;94523.19;4987158;28;20459;-88
2023/01/04 00:41:34;;;;;;;95.32;36.40;;;;;;;13.59;51.40;94528.31;4971761;28;20041;-89
2023/01/04 00:44:02;;;;;;;103.05;36.90;;;;;;;13.58;51.07;94524.09;5003512;28;20057;-91
2023/01/04 00:46:27;;;;;;;112.55;38.92;;;;;;;13.59;51.47;94525.59;5019714;28;20042;-91
2023/01/04 00:48:53;;;;;;;95.93;36.90;;;;;;;13.59;51.14;94520.16;5003754;28;20069;-89
2023/01/04 00:51:18;;;;;;;94.13;36.38;;;;;;;13.62;51.19;94526.66;5002758;28;20513;-90
2023/01/04 00:53:44;;;;;;;101.47;36.83;;;;;;;13.61;51.32;94519.72;4971688;28;20039;-89
2023/01/04 00:56:09;;;;;;;108.25;37.90;;;;;;;13.61;51.48;94520.47;4987820;28;20104;-88
2023/01/04 00:58:34;;;;;;;90.80;35.47;;;;;;;13.60;51.21;94523.63;5003633;28;20074;-88
2023/01/04 01:01:04;;;;;;;96.80;37.15;;;;;;;13.56;51.65;94520.31;4972107;28;20034;-90
2023/01/04 01:03:30;;;;;;;92.22;37.20;;;;;;;13.60;51.41;94515.47;4980808;28;20035;-92
2023/01/04 01:06:00;;;;;;;100.55;38.45;;;;;;;13.60;51.21;94524.38;5003652;28;20077;-88
2023/01/04 01:08:26;;;;;;;95.57;39.03;;;;;;;13.59;51.41;94528.31;5002977;28;20461;-89
2023/01/04 01:10:52;;;;;;;98.13;36.25;;;;;;;13.60;51.29;94523.63;5003558;28;20035;-88
2023/01/04 01:13:18;;;;;;;107.30;37.00;;;;;;;13.61;51.32;94523.19;4986686;28;20070;-88
2023/01/04 01:15:43;;;;;;;100.88;37.40;;;;;;;13.62;50.85;94526.66;4977621;28;20469;-88
2023/01/04 01:18:08;;;;;;;90.70;37.25;;;;;;;13.60;51.60;94516.25;4971108;28;20042;-88
2023/01/04 01:20:34;;;;;;;95.80;35.15;;;;;;;13.64;51.44;94514.09;5002980;28;20045;-90
2023/01/04 01:22:59;;;;;;;105.00;36.55;;;;;;;13.60;51.04;94523.63;4971999;28;20042;-89
2023/01/04 01:25:25;;;;;;;87.40;34.10;;;;;;;13.63;51.28;94522.72;5003038;28;20413;-90
2023/01/04 01:27:50;;;;;;;93.70;37.22;;;;;;;13.62;51.28;94511.09;4999433;28;20037;-88
2023/01/04 01:30:15;;;;;;;102.43;36.67;;;;;;;13.62;51.40;94518.50;5023153;28;20043;-89
2023/01/04 01:32:41;;;;;;;81.65;35.58;;;;;;;13.59;51.08;94513.97;4974961;28;20058;-88
2023/01/04 01:35:06;;;;;;;88.15;35.20;;;;;;;13.60;51.30;94516.25;4974047;28;20046;-87
2023/01/04 01:37:32;;;;;;;96.18;36.22;;;;;;;13.60;51.41;94515.47;5007298;28;20046;-88
2023/01/04 01:39:57;;;;;;;97.10;37.00;;;;;;;13.57;51.36;94519.84;5006576;28;20034;-89
2023/01/04 01:42:23;;;;;;;97.18;35.78;;;;;;;13.57;51.19;94505.53;4974047;28;20034;-89
2023/01/04 01:44:56;;;;;;;92.72;36.22;;;;;;;13.56;51.29;94512.16;4974865;28;20030;-90
2023/01/04 01:47:23;;;;;;;89.20;37.58;;;;;;;13.54;51.30;94514.56;4970895;28;20138;-90
2023/01/04 01:49:50;;;;;;;101.47;36.13;;;;;;;13.59;51.12;94505.81;4985240;28;20050;-88
2023/01/04 01:52:24;;;;;;;84.38;34.47;;;;;;;13.60;51.01;94510.81;4975871;28;20165;-90
2023/01/04 01:54:55;;;;;;;116.63;38.92;;;;;;;13.59;51.42;94516.69;4974060;28;20608;-88
2023/01/04 01:57:23;;;;;;;91.95;35.78;;;;;;;13.57;51.27;94511.72;5006710;28;20088;-88
2023/01/04 01:59:49;;;;;;;82.15;36.00;;;;;;;13.59;51.07;94503.84;5006937;28;20058;-88
2023/01/04 02:02:14;;;;;;;87.35;32.70;;;;;;;13.59;51.41;94508.53;5006612;28;20042;-89
2023/01/04 02:04:42;;;;;;;100.05;34.15;;;;;;;13.59;50.98;94512.00;4981205;28;20048;-92
2023/01/04 02:07:07;;;;;;;93.40;34.75;;;;;;;13.60;51.07;94515.47;4990572;28;20079;-92
2023/01/04 02:09:32;;;;;;;85.32;32.85;;;;;;;13.57;51.52;94517.13;5007019;28;20038;-89
2023/01/04 02:11:58;;;;;;;87.10;33.65;;;;;;;13.55;51.01;94514.13;5023413;28;20045;-89
2023/01/04 02:14:26;;;;;;;86.25;33.08;;;;;;;13.53;51.34;94519.25;5006937;28;20295;-88
2023/01/04 02:17:12;;;;;;;84.90;32.92;;;;;;;13.57;51.48;94521.81;4984006;28;20035;-88
2023/01/04 02:19:56;;;;;;;83.93;33.92;;;;;;;13.57;51.21;94514.44;4989684;28;20066;-89
2023/01/04 02:22:50;;;;;;;90.95;33.63;;;;;;;13.58;51.15;94513.22;5006286;28;20063;-88
2023/01/04 02:25:53;;;;;;;75.68;30.77;;;;;;;13.58;51.31;94504.31;4989933;28;20053;-90
2023/01/04 02:28:32;;;;;;;81.53;33.25;;;;;;;13.58;51.20;94499.63;5005918;28;20034;-90
2023/01/04 02:31:16;;;;;;;83.28;32.45;;;;;;;13.56;51.13;94488.47;4986367;28;20035;-92
2023/01/04 02:33:53;;;;;;;83.20;32.80;;;;;;;13.53;51.11;94486.66;4990700;28;20046;-88
2023/01/04 02:36:30;;;;;;;77.07;33.20;;;;;;;13.57;51.33;94481.81;4989688;28;20100;-90
2023/01/04 02:39:17;;;;;;;85.55;34.53;;;;;;;13.57;50.99;94472.91;4991594;28;20497;-92
2023/01/04 02:41:57;;;;;;;83.03;32.53;;;;;;;13.55;51.05;94461.75;5006133;28;20042;-88
2023/01/04 02:44:51;;;;;;;83.97;32.33;;;;;;;13.57;50.83;94462.81;5004721;28;20134;-88
2023/01/04 02:50:30;;;;;;;95.97;33.88;;;;;;;13.57;50.88;94460.09;5015108;28;20077;-88
2023/01/04 02:53:07;;;;;;;70.28;33.40;;;;;;;13.56;51.04;94452.38;5005440;28;20038;-87
2023/01/04 02:55:56;;;;;;;83.00;31.80;;;;;;;13.54;51.22;94454.81;4973872;28;20048;-88
2023/01/04 02:58:30;;;;;;;78.68;31.95;;;;;;;13.56;51.01;94464.00;4957428;28;20043;-88
2023/01/04 03:07:38;;;;;;;80.82;31.92;;;;;;;13.56;51.20;94445.00;4973419;28;20073;-87
2023/01/04 03:10:09;;;;;;;69.10;31.10;;;;;;;13.57;51.01;94443.78;4941106;28;20134;-89
2023/01/04 03:12:46;;;;;;;81.97;32.65;;;;;;;13.55;50.91;94440.78;4939539;28;20077;-91
2023/01/04 03:15:15;;;;;;;77.43;31.60;;;;;;;13.57;51.22;94437.59;4946882;28;20483;-88
2023/01/04 03:17:55;;;;;;;74.20;32.22;;;;;;;13.56;51.06;94442.28;4969965;28;20073;-90
2023/01/04 03:20:20;;;;;;;72.85;31.65;;;;;;;13.60;50.75;94437.44;4954892;28;20062;-90
2023/01/04 03:37:00;;;;;;;69.45;29.92;;;;;;;13.54;51.01;94420.25;4989854;28;20120;-89
2023/01/04 03:48:29;;;;;;;70.55;30.08;;;;;;;13.55;50.88;94412.84;4988730;28;20644;-88
2023/01/04 03:50:57;;;;;;;;;;;;;;;13.58;50.98;94414.66;4988336;28;20496;-89
2023/01/04 03:53:23;;;;;;;66.18;29.23;;;;;;;13.51;50.82;94410.28;5020872;28;19926;-89
2023/01/04 03:55:48;;;;;;;70.95;29.70;;;;;;;13.50;50.84;94403.34;4976119;28;20101;-89
2023/01/04 03:58:14;;;;;;;61.78;30.20;;;;;;;13.51;50.58;94404.84;5004281;28;20085;-91
2023/01/04 04:00:39;;;;;;;72.70;29.38;;;;;;;13.50;50.82;94400.63;5021515;28;20050;-91
2023/01/04 04:03:08;;;;;;;75.53;29.20;;;;;;;13.51;51.11;94395.94;5003591;28;20085;-90
2023/01/04 04:08:26;;;;;;;71.22;28.52;;;;;;;13.51;50.98;94399.41;4988080;28;20038;-90
2023/01/04 04:10:52;;;;;;;78.60;30.45;;;;;;;13.52;50.89;94408.31;4988169;28;20512;-88
2023/01/04 04:13:17;;;;;;;66.47;29.35;;;;;;;13.55;50.53;94397.31;4971893;28;20065;-91
2023/01/04 04:15:42;;;;;;;66.88;29.50;;;;;;;13.52;50.99;94392.78;5021422;28;20038;-88
2023/01/04 04:18:08;;;;;;;66.88;30.30;;;;;;;13.52;50.75;94392.03;5004180;28;20041;-89
2023/01/04 04:20:33;;;;;;;69.47;29.85;;;;;;;13.51;50.57;94380.41;4973860;28;20157;-88
2023/01/04 04:22:59;;;;;;;66.47;30.55;;;;;;;13.53;50.76;94390.81;5004522;28;20392;-91
2023/01/04 04:25:24;;;;;;;60.10;28.65;;;;;;;13.51;50.89;94387.81;4987907;28;20090;-88
2023/01/04 04:27:49;;;;;;;74.25;29.95;;;;;;;13.55;50.65;94385.69;5013736;28;20034;-88
2023/01/04 04:30:15;;;;;;;65.10;28.77;;;;;;;13.56;50.53;94395.34;5042002;28;20295;-88
2023/01/04 04:32:41;;;;;;;72.28;29.05;;;;;;;13.56;50.69;94390.66;5003355;28;20045;-91
2023/01/04 04:35:07;;;;;;;62.60;29.27;;;;;;;13.55;50.70;94389.16;5004247;28;20038;-88
2023/01/04 04:37:33;;;;;;;59.95;27.92;;;;;;;13.52;50.40;94398.22;4972131;28;20038;-88
2023/01/04 04:39:59;;;;;;;60.10;28.02;;;;;;;13.48;51.00;94405.00;5020029;28;20133;-89
2023/01/04 04:42:24;;;;;;;72.13;29.38;;;;;;;13.50;50.65;94414.22;4987331;28;20102;-89
2023/01/04 04:44:50;;;;;;;72.18;29.60;;;;;;;13.50;50.62;94410.75;4988128;28;20046;-89
2023/01/04 04:47:15;;;;;;;60.28;27.90;;;;;;;13.50;50.73;94392.47;4955523;28;20042;-90
2023/01/04 04:49:42;;;;;;;65.32;29.45;;;;;;;13.50;51.00;94402.59;5003836;28;20034;-88
2023/01/04 04:52:07;;;;;;;69.90;29.20;;;;;;;13.50;50.86;94403.34;4977308;28;20035;-89
2023/01/04 04:54:33;;;;;;;67.63;28.02;;;;;;;13.50;50.99;94391.72;4987773;28;20524;-88
2023/01/04 04:56:58;;;;;;;66.38;28.85;;;;;;;13.56;50.55;94389.91;5004552;28;20420;-87
2023/01/04 04:59:24;;;;;;;69.55;27.40;;;;;;;13.61;51.00;94397.47;4971763;28;20042;-90
2023/01/04 05:01:49;;;;;;;72.13;30.85;;;;;;;13.62;50.83;94394.28;5004437;28;20049;-93
2023/01/04 05:04:18;;;;;;;58.38;28.58;;;;;;;13.61;50.93;94390.06;4978797;28;20034;-88
2023/01/04 05:06:44;;;;;;;97.25;57.17;;;;;;;13.63;50.70;94365.91;4971667;28;20185;-90
2023/01/04 05:09:10;;;;;;;62.78;27.20;;;;;;;13.61;50.76;94375.72;5003942;28;20035;-88
2023/01/04 05:14:19;;;;;;;76.45;42.80;;;;;;;13.65;50.60;94365.44;4972387;28;20073;-88
2023/01/04 05:16:45;;;;;;;191.00;102.45;;;;;;;13.68;50.57;94364.53;4982014;28;20034;-88
2023/01/04 05:19:10;;;;;;;270.58;178.40;;;;;;;13.73;50.26;94356.50;4983140;28;20070;-85
2023/01/04 05:21:38;;;;;;;73.40;28.52;;;;;;;13.71;50.34;94369.81;4978913;28;20097;-87
2023/01/04 05:24:04;;;;;;;65.45;30.08;;;;;;;13.67;50.23;94363.00;4970702;28;20057;-86
2023/01/04 05:26:30;;;;;;;59.05;29.38;;;;;;;13.60;50.22;94364.09;4985433;28;20512;-86
2023/01/04 05:28:55;;;;;;;56.97;28.38;;;;;;;13.59;50.28;94356.41;4994157;28;20392;-91
2023/01/04 05:31:21;;;;;;;71.25;30.10;;;;;;;13.53;50.82;94367.13;5006847;28;20053;-88
2023/01/04 05:33:47;;;;;;;61.30;28.48;;;;;;;13.55;50.69;94361.25;4991581;28;20054;-94
2023/01/04 05:36:12;;;;;;;70.88;30.63;;;;;;;13.53;50.40;94364.41;4993338;28;20054;-88
2023/01/04 05:38:38;;;;;;;66.93;31.08;;;;;;;13.55;50.45;94359.28;4995936;28;20034;-89
2023/01/04 05:42:23;;;;;;;64.97;29.85;;;;;;;13.57;50.24;94351.44;4994106;28;20038;-89
2023/01/04 05:43:49;;;;;;;65.40;30.55;;;;;;;13.55;50.40;94347.66;4989009;28;20058;-90
2023/01/04 05:46:15;;;;;;;60.00;29.10;;;;;;;13.51;50.48;94345.09;4969807;28;20057;-90
2023/01/04 05:48:40;;;;;;;60.08;27.42;;;;;;;13.51;50.36;94350.53;4971044;28;20039;-91
2023/01/04 05:51:06;;;;;;;61.80;28.95;;;;;;;13.51;50.46;94350.53;5001457;28;20560;-87
2023/01/04 05:53:32;;;;;;;69.57;29.60;;;;;;;13.51;50.76;94353.25;5000015;28;20035;-90
2023/01/04 05:55:58;;;;;;;56.25;28.40;;;;;;;13.52;50.63;94340.41;4990835;28;20031;-91
2023/01/04 05:58:23;;;;;;;80.32;36.45;;;;;;;13.56;50.73;94347.19;5002786;28;20101;-91
2023/01/04 06:00:49;;;;;;;67.55;29.73;;;;;;;13.54;50.48;94349.63;4970415;28;20116;-87
2023/01/04 06:03:14;;;;;;;56.35;29.05;;;;;;;13.53;50.70;94350.06;5002004;28;20457;-90
2023/01/04 06:05:40;;;;;;;66.90;31.08;;;;;;;13.51;50.43;94345.09;5020252;28;20042;-88
2023/01/04 06:08:06;;;;;;;67.03;30.77;;;;;;;13.51;50.68;94344.34;4970349;28;20038;-86
2023/01/04 06:10:31;;;;;;;60.25;31.00;;;;;;;13.49;50.62;94350.22;5019704;28;20043;-89
2023/01/04 06:12:57;;;;;;;63.53;31.08;;;;;;;13.52;50.34;94351.28;5021468;28;20043;-87
2023/01/04 06:15:22;;;;;;;68.22;32.60;;;;;;;13.51;50.70;94344.34;5023319;28;20053;-88
2023/01/04 06:17:48;;;;;;;336.60;221.32;;;;;;;13.55;50.70;94345.69;5024962;28;20038;-90
2023/01/04 06:20:14;;;;;;;73.13;32.92;;;;;;;13.58;50.45;94333.16;4980159;28;20063;-86
2023/01/04 06:22:40;;;;;;;62.00;29.05;;;;;;;13.66;50.36;94339.78;4991541;28;20034;-87
2023/01/04 06:25:06;;;;;;;63.88;28.52;;;;;;;13.57;50.63;94348.72;4990534;28;20050;-87
2023/01/04 06:27:31;;;;;;;65.18;31.20;;;;;;;13.58;50.50;94339.34;5008039;28;20042;-87
2023/01/04 06:29:58;;;;;;;62.95;29.40;;;;;;;13.52;50.49;94330.31;4969728;28;20045;-86
2023/01/04 06:32:23;;;;;;;58.03;29.58;;;;;;;13.51;50.20;94328.78;4976842;28;20042;-87
2023/01/04 06:34:49;;;;;;;62.75;29.58;;;;;;;13.50;50.58;94326.53;4977692;28;20038;-86
2023/01/04 06:37:14;;;;;;;59.60;28.77;;;;;;;13.52;50.53;94330.31;4995459;28;20030;-87
2023/01/04 06:39:39;;;;;;;134.90;86.10;;;;;;;13.58;50.41;94331.19;5009884;28;20034;-89
2023/01/04 06:42:05;;;;;;;458.02;306.77;;;;;;;13.62;50.28;94331.81;4977166;28;20058;-86
2023/01/04 06:44:30;;;;;;;65.43;35.80;;;;;;;13.63;50.24;94336.03;4985042;28;20044;-86
2023/01/04 06:46:56;;;;;;;70.38;29.73;;;;;;;13.67;49.95;94339.31;4988614;28;20053;-89
2023/01/04 06:49:21;;;;;;;58.92;29.30;;;;;;;13.69;50.01;94336.13;4978100;28;20038;-88
2023/01/04 06:51:46;;;;;;;65.90;31.92;;;;;;;13.73;49.84;94337.50;5010673;28;20080;-92
2023/01/04 06:54:12;;;;;;;63.25;29.33;;;;;;;13.73;49.90;94339.47;5010219;28;20034;-93
2023/01/04 06:56:38;;;;;;;56.88;29.48;;;;;;;13.73;50.16;94332.06;5001227;28;20106;-90
2023/01/04 06:59:04;;;;;;;78.47;29.63;;;;;;;13.70;50.48;94343.84;5012515;28;20061;-91
2023/01/04 07:01:29;;;;;;;63.97;29.83;;;;;;;13.68;50.32;94337.34;4990325;28;20042;-90
2023/01/04 07:03:54;;;;;;;57.20;29.35;;;;;;;13.67;50.23;94341.28;5007757;28;20035;-90
2023/01/04 07:06:20;;;;;;;65.88;29.77;;;;;;;13.68;50.36;94329.94;5034881;28;20038;-88
2023/01/04 07:08:45;;;;;;;52.78;29.38;;;;;;;13.68;50.04;94337.34;5027559;22;20041;-89
2023/01/04 07:11:11;;;;;;;66.35;30.13;;;;;;;13.63;50.41;94325.16;4971054;28;20046;-89
2023/01/04 07:13:36;;;;;;;56.78;30.63;;;;;;;13.61;50.40;94332.25;5017933;28;20045;-88
2023/01/04 07:16:01;;;;;;;55.33;29.13;;;;;;;13.59;50.36;94332.72;4986130;28;20034;-89
2023/01/04 07:18:27;;;;;;;60.92;30.02;;;;;;;13.56;50.34;94330.91;5002973;28;20034;-88
2023/01/04 07:20:52;;;;;;;64.80;30.08;;;;;;;13.57;50.18;94347.97;5018505;28;20069;-89
2023/01/04 07:23:18;;;;;;;63.53;28.98;;;;;;;13.55;50.54;94344.94;5002149;28;20042;-88
2023/01/04 07:25:43;;;;;;;65.50;30.75;;;;;;;13.55;50.09;94348.41;4997771;28;20085;-88
2023/01/04 07:28:09;;;;;;;58.58;29.77;;;;;;;13.57;50.45;94350.69;4984100;28;20046;-88
2023/01/04 07:30:34;;;;;;;57.25;30.55;;;;;;;13.54;50.31;94359.72;5017581;28;20403;-88
2023/01/04 07:33:00;;;;;;;53.95;29.45;;;;;;;13.57;50.57;94353.38;4999857;28;20053;-88
2023/01/04 07:35:25;;;;;;;62.28;30.77;;;;;;;13.57;50.11;94350.69;4999510;28;20377;-88
2023/01/04 07:37:50;;;;;;;58.55;29.58;;;;;;;13.58;50.16;94349.47;5004389;28;20578;-88
2023/01/04 07:40:16;;;;;;;58.47;28.88;;;;;;;13.55;50.12;94348.41;5001953;28;20045;-87
2023/01/04 07:42:41;;;;;;;55.42;29.75;;;;;;;13.51;50.48;94347.81;5016227;28;20038;-89
2023/01/04 07:45:07;;;;;;;59.45;28.23;;;;;;;13.56;50.09;94349.91;5016464;28;20049;-88
2023/01/04 07:47:32;;;;;;;64.55;30.05;;;;;;;13.56;50.36;94335.59;5001269;28;20042;-88
2023/01/04 07:49:59;;;;;;;60.20;30.35;;;;;;;13.52;50.34;94346.59;5001257;28;20542;-88
2023/01/04 07:52:24;;;;;;;59.10;29.00;;;;;;;13.53;50.10;94352.78;4984128;28;20034;-88
2023/01/04 07:54:50;;;;;;;59.85;29.85;;;;;;;13.52;50.29;94357.47;4983404;28;20084;-88
2023/01/04 07:57:15;;;;;;;56.78;29.23;;;;;;;13.56;50.37;94357.31;4996914;28;20034;-87
2023/01/04 07:59:40;;;;;;;56.95;28.27;;;;;;;13.53;50.74;94356.25;5002496;28;20038;-87
2023/01/04 08:02:06;;;;;;;51.58;27.45;;;;;;;13.52;50.35;94354.00;5002016;28;20042;-87
2023/01/04 08:04:31;;;;;;;59.60;28.75;;;;;;;13.52;50.39;94359.44;5018483;28;20045;-87
2023/01/04 08:06:57;;;;;;;60.65;28.65;;;;;;;13.52;50.46;94356.72;5034258;28;20513;-87
2023/01/04 08:09:22;;;;;;;68.15;29.52;;;;;;;13.55;50.53;94353.84;5015099;28;20065;-88
2023/01/04 08:11:47;;;;;;;77.80;30.77;;;;;;;13.52;50.63;94365.63;5013017;28;20042;-87
2023/01/04 08:14:13;;;;;;;62.28;29.02;;;;;;;13.48;50.80;94361.53;5008071;28;20030;-87
2023/01/04 08:16:39;;;;;;;57.60;28.33;;;;;;;13.46;50.68;94356.56;5007291;28;20041;-88
2023/01/04 08:19:07;;;;;;;54.10;28.55;;;;;;;13.47;50.60;94351.88;4973320;28;20030;-87
2023/01/04 08:21:34;;;;;;;54.35;27.33;;;;;;;13.50;50.65;94348.25;4992635;28;20037;-87
2023/01/04 08:24:00;;;;;;;53.78;28.48;;;;;;;13.49;50.54;94350.22;5010263;28;20480;-87
2023/01/04 08:26:25;;;;;;;49.38;26.98;;;;;;;13.49;50.49;94349.47;5009788;28;20053;-87
2023/01/04 08:28:50;;;;;;;56.55;27.58;;;;;;;13.45;50.53;94349.63;4996387;28;20038;-87
2023/01/04 08:31:22;;;;;;;55.75;28.80;;;;;;;13.48;50.43;94334.38;4985086;28;20555;-88
2023/01/04 08:33:47;;;;;;;48.45;27.80;;;;;;;13.48;50.50;94340.56;5000090;28;20034;-87
2023/01/04 08:36:18;;;;;;;57.47;27.83;;;;;;;13.52;50.50;94330.31;4999026;28;20100;-88
2023/01/04 08:38:44;;;;;;;50.65;26.30;;;;;;;13.49;50.63;94336.66;5015041;28;20125;-87
2023/01/04 08:41:09;;;;;;;46.10;16.90;;;;;;;13.32;48.88;94336.22;4999087;28;20072;-88
2023/01/04 08:43:35;;;;;;;27.35;13.85;;;;;;;13.20;48.66;94331.72;5001510;28;20048;-87
2023/01/04 08:46:02;;;;;;;27.38;13.13;;;;;;;13.18;48.51;94320.56;5000454;28;20034;-88
2023/01/04 08:48:28;;;;;;;34.05;13.23;;;;;;;13.23;48.44;94325.38;5016585;28;20163;-88
2023/01/04 08:50:54;;;;;;;24.55;12.43;;;;;;;13.24;48.87;94335.03;5034009;28;20036;-88
2023/01/04 08:53:19;;;;;;;31.92;16.00;;;;;;;13.28;49.16;94321.28;5000291;28;20029;-88
2023/01/04 08:55:49;;;;;;;37.83;18.67;;;;;;;13.31;49.30;94314.97;4993036;23;20216;-87
2023/01/04 08:58:14;;;;;;;44.35;22.23;;;;;;;13.30;49.77;94318.88;4999209;28;20046;-88
2023/01/04 09:00:41;;;;;;;44.65;20.25;;;;;;;13.32;49.58;94309.06;5000962;28;20034;-88
2023/01/04 09:03:06;;;;;;;49.17;21.17;;;;;;;13.25;49.47;94303.94;5016081;28;20080;-88
2023/01/04 09:05:32;;;;;;;43.53;19.88;;;;;;;13.27;49.56;94312.41;4985573;28;20035;-89
2023/01/04 09:07:59;;;;;;;41.72;21.13;;;;;;;13.26;49.91;94307.41;5015396;28;20502;-89
2023/01/04 09:10:24;;;;;;;45.78;22.35;;;;;;;13.28;50.17;94308.47;5014244;28;20095;-91
2023/01/04 09:12:49;;;;;;;44.70;22.10;;;;;;;13.28;50.33;94310.44;5014237;28;20029;-87
2023/01/04 09:15:16;;;;;;;46.05;23.20;;;;;;;13.32;49.82;94311.03;4983868;28;20085;-87
2023/01/04 09:17:41;;;;;;;47.35;23.80;;;;;;;13.32;50.40;94302.88;4999951;28;20096;-88
2023/01/04 09:20:07;;;;;;;37.88;20.85;;;;;;;13.33;49.93;94313.28;4999989;28;20482;-87
2023/01/04 09:22:32;;;;;;;42.17;22.13;;;;;;;13.35;49.76;94305.44;4999192;28;20176;-88
2023/01/04 09:24:58;;;;;;;42.20;19.40;;;;;;;13.36;49.84;94300.78;4984907;28;20042;-91
2023/01/04 09:27:23;;;;;;;48.67;20.52;;;;;;;13.37;49.51;94302.28;4985802;28;20467;-87
2023/01/04 09:29:49;;;;;;;41.83;20.73;;;;;;;13.40;49.58;94284.31;4999223;28;20084;-88
2023/01/04 09:32:16;;;;;;;39.45;20.73;;;;;;;13.37;49.74;94284.03;4991605;28;20097;-88
2023/01/04 09:34:42;;;;;;;48.63;21.42;;;;;;;13.39;49.67;94289.00;5002720;28;20034;-87
2023/01/04 09:37:07;;;;;;;41.85;21.08;;;;;;;13.40;49.48;94285.06;4999047;28;20072;-87
2023/01/04 09:39:32;;;;;;;47.20;21.02;;;;;;;13.43;49.67;94284.16;5017557;28;20468;-87
2023/01/04 09:42:02;;;;;;;42.40;20.60;;;;;;;13.40;49.94;94279.66;5000762;28;20034;-87
2023/01/04 09:44:42;;;;;;;44.10;20.92;;;;;;;13.41;49.92;94278.44;4984890;28;20045;-87
2023/01/04 09:47:10;;;;;;;35.58;17.02;;;;;;;13.36;50.00;94274.38;5011189;28;20056;-87
2023/01/04 09:49:51;;;;;;;25.00;11.90;;;;;;;13.25;49.26;94279.50;4997176;28;20033;-91
2023/01/04 09:52:31;;;;;;;30.77;12.67;;;;;;;13.23;49.63;94270.31;4998147;28;20050;-88
2023/01/04 09:55:01;;;;;;;29.85;12.98;;;;;;;13.25;49.68;94268.66;4980726;28;20511;-89
2023/01/04 09:57:31;;;;;;;31.92;13.32;;;;;;;13.27;49.51;94265.47;4980092;28;20034;-87
2023/01/04 10:00:18;;;;;;;34.75;17.10;;;;;;;13.31;50.00;94266.09;4995655;28;20026;-87
2023/01/04 10:02:47;;;;;;;34.70;15.70;;;;;;;13.33;49.69;94261.69;4995947;28;20081;-87
2023/01/04 10:05:28;;;;;;;34.00;16.60;;;;;;;13.38;50.01;94265.78;4996390;28;20599;-87
2023/01/04 10:07:55;;;;;;;47.90;19.80;;;;;;;13.35;49.53;94253.84;4980873;28;20030;-88
2023/01/04 10:10:42;;;;;;;36.60;19.40;;;;;;;13.37;49.89;94256.88;4982149;28;20042;-87
2023/01/04 10:13:22;;;;;;;40.50;20.50;;;;;;;13.41;49.51;94245.09;5000293;28;20042;-88
2023/01/04 10:15:54;;;;;;;124.45;41.45;;;;;;;13.40;49.85;94246.31;4999413;28;20035;-89
2023/01/04 10:18:52;;;;;;;106.20;34.88;;;;;;;13.48;49.73;94247.47;4996195;28;20042;-89
2023/01/04 10:21:41;;;;;;;671.67;114.25;;;;;;;13.47;49.65;94244.00;4998696;28;20046;-88
2023/01/04 10:24:10;;;;;;;983.92;189.20;;;;;;;13.45;49.55;94221.97;4977377;28;20061;-88
2023/01/04 10:26:44;;;;;;;1863.43;361.23;;;;;;;13.43;49.78;94229.06;4986362;28;20186;-92
2023/01/04 10:29:25;;;;;;;1651.35;314.10;;;;;;;13.43;49.44;94216.25;4965511;28;20515;-87
2023/01/04 10:32:00;;;;;;;502.38;81.18;;;;;;;13.45;49.78;94207.63;4995585;28;20038;-91
2023/01/04 10:34:29;;;;;;;288.58;46.05;;;;;;;13.45;49.74;94205.69;4959599;28;20038;-87
2023/01/04 10:37:12;;;;;;;200.82;34.65;;;;;;;13.52;49.73;94199.94;4991542;28;20046;-88
2023/01/04 10:39:38;;;;;;;158.45;34.08;;;;;;;13.49;49.44;94197.38;4991069;28;20046;-90
2023/01/04 10:42:18;;;;;;;144.70;31.48;;;;;;;13.45;49.70;94200.25;4990356;28;20404;-86
2023/01/04 10:44:48;;;;;;;188.00;37.10;;;;;;;13.43;49.78;94186.38;4958465;28;20130;-87
2023/01/04 10:47:31;;;;;;;254.00;43.70;;;;;;;13.47;49.82;94186.22;4990513;28;20050;-87
2023/01/04 10:49:58;;;;;;;354.15;56.88;;;;;;;13.44;49.74;94187.13;4975312;28;20045;-86
2023/01/04 10:52:36;;;;;;;358.75;56.95;;;;;;;13.47;49.61;94184.25;4954097;28;20077;-87
2023/01/04 10:55:18;;;;;;;335.60;57.40;;;;;;;13.43;49.73;94191.06;4985387;28;20054;-87
2023/01/04 10:57:58;;;;;;;352.08;55.67;;;;;;;13.43;49.97;94185.63;4974612;28;20045;-88
2023/01/04 11:00:27;;;;;;;309.05;51.08;;;;;;;13.44;49.79;94189.84;4973636;28;20509;-89
2023/01/04 11:03:24;;;;;;;269.98;48.58;;;;;;;13.50;49.83;94193.44;4990866;28;20104;-88
2023/01/04 11:05:54;;;;;;;253.30;45.70;;;;;;;13.52;49.52;94191.78;4991748;28;20031;-86
2023/01/04 11:08:22;;;;;;;200.45;37.45;;;;;;;13.54;49.91;94183.91;4974810;28;20093;-88
2023/01/04 11:10:54;;;;;;;204.32;41.28;;;;;;;13.55;49.56;94176.53;4972326;28;20380;-88
2023/01/04 11:13:19;;;;;;;216.57;37.97;;;;;;;13.47;49.39;94170.66;4999423;28;20097;-88
2023/01/04 11:15:46;;;;;;;222.45;40.17;;;;;;;13.48;49.64;94161.31;4974294;28;20046;-89
2023/01/04 11:18:12;;;;;;;1257.15;227.98;;;;;;;13.47;49.77;94165.22;4973071;28;20109;-91
2023/01/04 11:20:38;;;;;;;1702.63;458.83;;;;;;;13.45;49.84;94162.22;4957484;28;20045;-90
2023/01/04 11:23:11;;;;;;;1999.90;612.38;;;;;;;13.45;49.70;94164.19;4973583;28;20061;-86
2023/01/04 11:25:49;;;;;;;840.72;255.15;;;;;;;13.47;50.08;94150.91;4975165;28;20049;-86
2023/01/04 11:28:28;;;;;;;527.33;125.07;;;;;;;13.45;49.84;94143.22;4988361;28;20034;-87
2023/01/04 11:31:04;;;;;;;329.02;63.28;;;;;;;13.47;49.93;94140.78;4982176;28;20042;-86
2023/01/04 11:33:30;;;;;;;160.98;33.85;;;;;;;13.36;50.24;94135.13;4973901;28;20050;-87
2023/01/04 11:35:57;;;;;;;165.10;30.45;;;;;;;13.30;50.54;94135.00;4989251;28;20038;-88
2023/01/04 11:38:27;;;;;;;200.25;36.60;;;;;;;13.34;50.09;94122.00;4989209;28;20092;-86
2023/01/04 11:40:54;;;;;;;217.82;36.30;;;;;;;13.40;50.22;94124.09;4957248;28;20406;-89
2023/01/04 11:43:20;;;;;;;177.55;35.88;;;;;;;13.38;50.33;94122.59;4972307;28;20137;-86
2023/01/04 11:45:55;;;;;;;261.05;51.58;;;;;;;13.45;50.09;94107.16;4973705;28;20125;-87
2023/01/04 11:48:32;;;;;;;328.90;59.25;;;;;;;13.45;50.11;94115.31;4988678;28;20133;-91
2023/01/04 11:50:58;;;;;;;392.50;71.47;;;;;;;13.44;50.17;94111.09;4969478;28;20448;-93
2023/01/04 11:53:36;;;;;;;546.00;118.25;;;;;;;13.46;49.83;94106.69;4964219;28;20043;-88
2023/01/04 11:56:19;;;;;;;547.92;120.60;;;;;;;13.43;49.63;94094.03;4974162;28;20147;-92
2023/01/04 11:59:16;;;;;;;592.42;137.98;;;;;;;13.48;50.07;94089.94;4972443;28;20717;-87
2023/01/04 12:01:43;;;;;;;580.63;138.60;;;;;;;13.47;49.86;94097.34;4974906;28;20034;-87